Time;durP1;ratioP1;P1;durP2;ratioP2;P2;SDS_P1;SDS_P2;PMS_P1;PMS_P2;Temp;Humidity;BMP_temperature;BMP_pressure;BME280_temperature;BME280_humidity;BME280_pressure;Samples;Min_cycle;Max_cycle;Signal;HPM_P1;HPM_P2
2022/04/28 00:00:13;;;;;;;13.73;8.52;;;;;;;28.67;19.34;98823.34;5077746;28;20465;-77
2022/04/28 00:02:39;;;;;;;19.63;10.43;;;;;;;28.18;19.96;98827.53;5073209;28;20447;-78
2022/04/28 00:05:07;;;;;;;14.15;8.43;;;;;;;27.87;20.22;98821.44;5073078;28;20068;-78
2022/04/28 00:07:34;;;;;;;15.90;8.95;;;;;;;27.88;20.39;98827.91;5072313;28;20063;-78
2022/04/28 00:10:00;;;;;;;12.98;8.20;;;;;;;27.64;20.47;98821.66;5075686;28;20490;-77
2022/04/28 00:12:27;;;;;;;14.18;8.02;;;;;;;27.80;20.17;98829.31;5076659;28;20539;-77
2022/04/28 00:14:53;;;;;;;13.65;7.47;;;;;;;27.68;20.17;98824.38;5073584;28;20104;-77
2022/04/28 00:17:20;;;;;;;12.90;7.60;;;;;;;27.96;20.03;98820.81;5074642;28;20081;-77
2022/04/28 00:19:46;;;;;;;14.40;9.07;;;;;;;28.25;19.88;98823.72;5072594;28;20032;-77
2022/04/28 00:22:13;;;;;;;11.52;7.45;;;;;;;28.20;19.65;98821.44;5076669;28;20072;-77
2022/04/28 00:24:39;;;;;;;14.00;7.90;;;;;;;28.12;19.62;98820.06;5077067;28;20398;-77
2022/04/28 00:27:05;;;;;;;14.00;7.88;;;;;;;28.09;19.87;98818.91;5079745;28;20040;-77
2022/04/28 00:29:32;;;;;;;11.70;6.65;;;;;;;27.93;20.09;98814.06;5080135;28;20501;-77
2022/04/28 00:31:58;;;;;;;10.55;6.75;;;;;;;27.96;19.96;98820.81;5080789;28;20056;-77
2022/04/28 00:34:24;;;;;;;11.88;7.85;;;;;;;28.08;19.58;98820.94;5075537;28;20490;-77
2022/04/28 00:36:50;;;;;;;10.07;7.05;;;;;;;28.20;19.53;98819.41;5075007;28;20045;-77
2022/04/28 00:39:17;;;;;;;13.70;7.13;;;;;;;28.34;19.16;98821.03;5081520;28;20056;-77
2022/04/28 00:41:43;;;;;;;14.27;8.02;;;;;;;28.41;19.40;98816.00;5078553;28;20424;-77
2022/04/28 00:44:11;;;;;;;14.27;8.13;;;;;;;28.54;19.09;98819.66;5077026;28;20033;-76
2022/04/28 00:46:38;;;;;;;10.88;6.82;;;;;;;28.59;19.06;98813.50;5079684;28;20035;-77
2022/04/28 00:51:49;;;;;;;11.75;7.35;;;;;;;28.54;19.08;98816.81;5075439;28;20103;-77
2022/04/28 00:54:16;;;;;;;9.50;6.47;;;;;;;27.98;19.53;98827.59;5075905;28;20048;-77
2022/04/28 00:56:42;;;;;;;10.35;6.80;;;;;;;27.65;20.13;98817.59;5072805;28;20028;-77
2022/04/28 00:59:11;;;;;;;13.70;8.02;;;;;;;27.91;19.67;98819.31;5074683;28;20035;-77
2022/04/28 01:01:37;;;;;;;12.73;7.63;;;;;;;28.11;19.42;98824.09;5074103;28;20040;-77
2022/04/28 01:04:04;;;;;;;17.52;9.27;;;;;;;28.28;19.23;98820.81;5076428;28;20062;-77
2022/04/28 01:06:30;;;;;;;14.75;8.77;;;;;;;28.24;19.29;98827.81;5076464;28;20040;-77
2022/04/28 01:08:57;;;;;;;24.02;11.90;;;;;;;28.38;19.38;98825.34;5072732;28;20037;-77
2022/04/28 01:11:25;;;;;;;19.20;9.13;;;;;;;28.54;18.98;98827.34;5075140;28;20041;-77
2022/04/28 01:13:51;;;;;;;16.58;9.27;;;;;;;28.58;19.14;98828.03;5074781;28;20144;-77
2022/04/28 01:16:17;;;;;;;15.60;8.05;;;;;;;28.59;19.07;98826.84;5072477;28;20103;-77
2022/04/28 01:18:46;;;;;;;14.68;8.65;;;;;;;28.63;18.78;98827.53;5076976;28;20074;-77
2022/04/28 01:21:12;;;;;;;15.05;8.27;;;;;;;28.47;18.83;98833.97;5075633;28;20028;-77
2022/04/28 01:23:38;;;;;;;16.05;8.10;;;;;;;28.08;19.36;98830.66;5075806;28;20040;-77
2022/04/28 01:26:04;;;;;;;14.02;6.97;;;;;;;28.04;19.72;98833.56;5073678;28;20481;-77
2022/04/28 01:28:32;;;;;;;12.48;7.15;;;;;;;28.25;19.01;98832.19;5077036;28;20067;-77
2022/04/28 01:31:03;;;;;;;13.32;8.07;;;;;;;28.34;18.55;98826.69;5074951;28;20059;-77
2022/04/28 01:33:29;;;;;;;13.43;7.63;;;;;;;28.43;18.78;98824.03;5076464;28;20115;-77
2022/04/28 01:35:55;;;;;;;10.80;7.70;;;;;;;28.46;18.84;98825.97;5071668;28;20032;-77
2022/04/28 01:38:22;;;;;;;12.55;7.53;;;;;;;28.52;19.11;98827.03;5074491;28;20130;-77
2022/04/28 01:40:48;;;;;;;14.38;8.55;;;;;;;28.50;18.79;98826.66;5074751;28;20032;-77
2022/04/28 01:43:14;;;;;;;13.68;7.45;;;;;;;28.53;18.87;98825.75;5073455;28;20047;-77
2022/04/28 01:45:40;;;;;;;11.32;6.93;;;;;;;28.49;18.92;98823.06;5075220;28;20113;-77
2022/04/28 01:48:06;;;;;;;10.95;6.60;;;;;;;28.46;18.72;98829.59;5070617;28;20040;-77
2022/04/28 01:50:32;;;;;;;10.57;6.22;;;;;;;28.40;18.98;98825.69;5074749;28;20024;-77
2022/04/28 01:55:43;;;;;;;11.43;6.63;;;;;;;28.16;19.15;98830.00;5071641;28;20040;-77
2022/04/28 01:58:09;;;;;;;9.80;6.90;;;;;;;27.42;19.93;98838.28;5071203;28;21407;-77
2022/04/28 02:00:36;;;;;;;10.48;7.40;;;;;;;27.51;19.64;98832.06;5074846;28;20422;-77
2022/04/28 02:03:02;;;;;;;11.95;7.03;;;;;;;27.77;19.52;98833.03;5075951;28;20130;-77
2022/04/28 02:05:28;;;;;;;11.43;6.97;;;;;;;27.89;19.61;98835.16;5076944;28;20040;-77
2022/04/28 02:07:54;;;;;;;10.68;6.68;;;;;;;27.81;19.35;98833.72;5070633;28;20032;-77
2022/04/28 02:10:20;;;;;;;10.30;6.00;;;;;;;27.73;19.61;98835.13;5072137;28;20024;-76
2022/04/28 02:12:47;;;;;;;12.20;7.43;;;;;;;27.80;19.51;98830.09;5070964;28;20156;-77
2022/04/28 02:15:13;;;;;;;13.07;7.38;;;;;;;28.04;19.16;98833.56;5074512;28;20028;-77
2022/04/28 02:17:39;;;;;;;12.18;7.35;;;;;;;28.16;18.93;98830.00;5072987;28;20028;-77
2022/04/28 02:20:11;;;;;;;9.95;6.25;;;;;;;27.90;19.19;98837.50;5077511;28;20405;-77
2022/04/28 02:22:37;;;;;;;14.63;8.48;;;;;;;27.72;19.48;98825.09;5070885;28;20577;-77
2022/04/28 02:25:04;;;;;;;13.48;7.55;;;;;;;27.87;19.63;98823.47;5073198;28;20031;-77
2022/04/28 02:27:31;;;;;;;15.70;8.15;;;;;;;28.09;19.24;98830.19;5070248;28;20036;-77
2022/04/28 02:29:57;;;;;;;8.35;6.45;;;;;;;28.31;18.75;98819.13;5073574;28;20111;-77
2022/04/28 02:32:23;;;;;;;12.02;7.35;;;;;;;28.42;18.92;98826.06;5075371;28;20035;-77
2022/04/28 02:34:49;;;;;;;12.90;7.65;;;;;;;28.50;18.79;98829.47;5072558;28;20036;-78
2022/04/28 02:37:15;;;;;;;14.63;7.88;;;;;;;28.60;18.58;98839.72;5076889;28;20028;-77
2022/04/28 02:39:41;;;;;;;12.32;7.43;;;;;;;28.64;18.58;98832.72;5069455;28;20410;-77
2022/04/28 02:42:08;;;;;;;13.50;7.35;;;;;;;28.64;18.34;98829.09;5070343;28;20036;-77
2022/04/28 02:44:34;;;;;;;12.20;6.85;;;;;;;28.08;18.87;98840.69;5072376;28;20044;-77
2022/04/28 02:47:00;;;;;;;13.65;7.47;;;;;;;27.98;19.29;98838.91;5076437;28;20090;-78
2022/04/28 02:49:26;;;;;;;11.50;7.45;;;;;;;28.20;18.92;98841.19;5070957;28;20379;-77
2022/04/28 02:51:52;;;;;;;14.27;8.20;;;;;;;28.32;19.02;98843.31;5073572;28;20036;-77
2022/04/28 02:54:18;;;;;;;13.15;7.47;;;;;;;28.33;18.62;98842.06;5075190;28;20055;-77
2022/04/28 02:56:44;;;;;;;11.15;6.95;;;;;;;28.00;19.00;98842.13;5074845;28;20039;-77
2022/04/28 02:59:10;;;;;;;12.05;7.63;;;;;;;28.00;18.97;98842.13;5071941;28;20033;-77
2022/04/28 03:01:36;;;;;;;12.38;7.07;;;;;;;28.09;18.94;98841.50;5070734;28;20746;-77
2022/04/28 03:04:03;;;;;;;15.30;8.07;;;;;;;28.16;18.61;98841.31;5075669;28;20497;-77
2022/04/28 03:11:58;;;;;;;10.68;7.00;;;;;;;28.08;18.72;98846.34;5072716;28;20093;-77
2022/04/28 03:14:25;;;;;;;13.68;7.00;;;;;;;27.76;19.33;98851.19;5073209;28;20024;-77
2022/04/28 03:16:51;;;;;;;8.82;6.00;;;;;;;27.86;19.14;98853.75;5076846;28;20671;-77
2022/04/28 03:19:17;;;;;;;10.65;6.57;;;;;;;27.67;19.10;98853.81;5070460;28;20052;-77
2022/04/28 03:21:43;;;;;;;10.77;6.95;;;;;;;27.47;19.29;98850.28;5074162;28;20032;-77
2022/04/28 03:24:10;;;;;;;11.18;7.70;;;;;;;27.36;19.25;98856.94;5076143;28;20486;-77
2022/04/28 03:26:38;;;;;;;17.10;7.35;;;;;;;27.56;19.13;98856.13;5070802;28;20012;-77
2022/04/28 03:29:05;;;;;;;12.93;6.97;;;;;;;27.75;18.88;98858.84;5074005;28;20170;-77
2022/04/28 03:31:31;;;;;;;9.45;6.45;;;;;;;27.63;19.07;98856.75;5073769;28;20552;-77
2022/04/28 03:33:57;;;;;;;12.45;7.35;;;;;;;27.60;18.94;98854.81;5071972;28;20044;-77
2022/04/28 03:39:07;;;;;;;11.82;7.13;;;;;;;27.76;18.68;98863.28;5072049;28;20051;-77
2022/04/28 03:41:34;;;;;;;12.77;7.03;;;;;;;27.79;18.50;98859.56;5075377;28;20640;-77
2022/04/28 03:44:00;;;;;;;12.30;7.03;;;;;;;27.83;18.43;98859.47;5073252;28;20055;-77
2022/04/28 03:46:26;;;;;;;12.00;7.70;;;;;;;27.83;18.50;98860.28;5075403;28;20131;-77
2022/04/28 03:48:52;;;;;;;14.65;7.35;;;;;;;27.86;18.48;98861.41;5073839;28;20032;-77
2022/04/28 03:51:19;;;;;;;11.65;7.43;;;;;;;27.84;18.08;98858.25;5075624;28;20047;-77
2022/04/28 03:53:45;;;;;;;12.10;6.97;;;;;;;27.56;18.98;98867.41;5070448;28;20020;-77
2022/04/28 03:56:11;;;;;;;11.93;6.50;;;;;;;27.58;18.93;98864.94;5073684;28;20036;-77
2022/04/28 03:58:37;;;;;;;10.50;7.15;;;;;;;27.76;18.89;98880.19;5074841;28;20052;-77
2022/04/28 04:01:03;;;;;;;9.00;5.78;;;;;;;27.87;18.58;98872.25;5077725;28;20043;-77
2022/04/28 04:03:30;;;;;;;10.43;6.78;;;;;;;27.48;19.24;98878.06;5078706;28;20036;-77
2022/04/28 04:05:56;;;;;;;11.73;7.15;;;;;;;27.33;19.40;98876.75;5079830;28;20036;-77
2022/04/28 04:08:23;;;;;;;11.52;6.65;;;;;;;27.79;19.48;98873.69;5076825;28;20028;-77
2022/04/28 04:10:49;;;;;;;10.27;5.97;;;;;;;28.38;18.70;98875.44;5075930;28;20213;-77
2022/04/28 04:13:15;;;;;;;8.88;6.18;;;;;;;28.81;18.31;98873.03;5078231;28;20028;-77
2022/04/28 04:15:42;;;;;;;9.18;6.18;;;;;;;29.17;18.06;98876.38;5076024;28;20033;-77
2022/04/28 04:18:08;;;;;;;7.95;5.50;;;;;;;29.11;18.20;98875.38;5081860;28;20122;-78
2022/04/28 04:20:34;;;;;;;9.73;6.25;;;;;;;28.88;18.58;98883.34;5073644;28;20115;-78
2022/04/28 04:23:04;;;;;;;10.18;6.72;;;;;;;28.96;18.69;98874.22;5074940;28;21100;-78
2022/04/28 04:25:30;;;;;;;9.85;5.88;;;;;;;29.42;18.62;98878.50;5075635;28;20028;-77
2022/04/28 04:27:56;;;;;;;12.77;7.38;;;;;;;29.46;18.72;98881.22;5072901;28;20024;-78
2022/04/28 04:33:07;;;;;;;11.30;6.18;;;;;;;29.03;19.30;98881.69;5077041;28;20635;-78
2022/04/28 04:35:33;;;;;;;13.00;7.10;;;;;;;28.89;19.21;98887.75;5076569;28;20035;-78
2022/04/28 04:37:59;;;;;;;8.50;5.43;;;;;;;28.69;19.78;98893.56;5075472;28;20025;-78
2022/04/28 04:40:25;;;;;;;9.32;6.50;;;;;;;28.68;20.09;98892.75;5078953;28;20033;-78
2022/04/28 04:42:51;;;;;;;9.60;6.97;;;;;;;28.81;20.41;98892.81;5074597;28;20044;-78
2022/04/28 04:45:17;;;;;;;10.90;6.53;;;;;;;29.18;19.74;98897.81;5079182;28;20036;-78
2022/04/28 04:47:43;;;;;;;8.43;5.97;;;;;;;29.40;19.80;98900.81;5078621;28;20056;-78
2022/04/28 04:50:09;;;;;;;7.13;5.15;;;;;;;29.92;19.44;98901.16;5075885;28;20025;-78
2022/04/28 04:52:36;;;;;;;9.70;7.13;;;;;;;30.29;19.17;98902.38;5080011;28;20771;-79
2022/04/28 04:55:04;;;;;;;8.80;6.40;;;;;;;30.46;18.67;98906.63;5072222;28;20109;-79
2022/04/28 04:57:30;;;;;;;11.52;6.18;;;;;;;30.55;18.83;98903.88;5073265;28;20059;-79
2022/04/28 04:59:56;;;;;;;9.55;6.07;;;;;;;30.36;19.11;98915.53;5071481;28;20109;-80
2022/04/28 05:02:23;;;;;;;10.00;6.18;;;;;;;30.46;19.32;98908.66;5077701;28;20506;-79
2022/04/28 05:04:50;;;;;;;13.60;6.50;;;;;;;30.61;19.16;98910.56;5077063;28;20042;-79
2022/04/28 05:07:16;;;;;;;12.38;6.43;;;;;;;30.81;18.96;98907.41;5080105;28;20033;-79
2022/04/28 05:09:42;;;;;;;11.82;6.50;;;;;;;31.02;18.92;98917.22;5078494;28;20035;-79
2022/04/28 05:12:09;;;;;;;10.63;6.88;;;;;;;31.16;18.92;98919.50;5073296;28;20135;-79
2022/04/28 05:14:36;;;;;;;9.02;5.60;;;;;;;31.09;19.09;98916.94;5077662;28;20070;-79
2022/04/28 05:17:02;;;;;;;10.68;7.15;;;;;;;31.12;18.94;98918.88;5077778;28;20141;-79
2022/04/28 05:19:31;;;;;;;8.13;5.60;;;;;;;31.29;18.96;98921.03;5077236;28;20035;-79
2022/04/28 05:21:57;;;;;;;9.35;5.72;;;;;;;31.34;18.49;98920.41;5076959;28;20063;-79
2022/04/28 05:24:24;;;;;;;10.10;6.15;;;;;;;31.39;18.96;98925.50;5077933;28;20028;-79
2022/04/28 05:26:50;;;;;;;9.73;5.93;;;;;;;31.50;18.68;98924.34;5077809;28;20036;-80
2022/04/28 05:29:16;;;;;;;8.52;5.72;;;;;;;31.41;18.49;98925.81;5077883;28;20036;-80
2022/04/28 05:31:42;;;;;;;7.40;5.60;;;;;;;31.52;18.91;98922.63;5075794;28;20405;-79
2022/04/28 05:34:08;;;;;;;8.15;6.15;;;;;;;31.63;18.38;98922.97;5074506;28;20074;-83
2022/04/28 05:36:36;;;;;;;12.70;6.80;;;;;;;31.63;18.55;98930.69;5074122;28;20482;-78
2022/04/28 05:39:02;;;;;;;10.40;6.78;;;;;;;31.65;18.37;98925.38;5082084;28;20114;-79
2022/04/28 05:41:28;;;;;;;9.20;5.90;;;;;;;31.69;18.17;98934.53;5081072;28;20028;-79
2022/04/28 05:46:40;;;;;;;11.13;5.95;;;;;;;31.72;18.04;98939.25;5081329;28;20040;-79
2022/04/28 05:49:07;;;;;;;10.95;6.97;;;;;;;31.65;18.34;98939.56;5078942;28;20082;-78
2022/04/28 05:51:33;;;;;;;12.38;8.00;;;;;;;31.63;17.83;98939.22;5080895;28;20028;-78
2022/04/28 05:53:59;;;;;;;12.40;6.85;;;;;;;31.59;18.65;98935.75;5074683;28;20043;-79
2022/04/28 05:56:25;;;;;;;10.32;6.97;;;;;;;31.73;18.40;98947.34;5079368;28;20033;-78
2022/04/28 05:58:52;;;;;;;14.65;7.68;;;;;;;31.86;18.16;98945.19;5078892;28;20062;-78
2022/04/28 06:01:18;;;;;;;11.27;6.97;;;;;;;31.94;17.88;98943.66;5076321;28;20481;-78
2022/04/28 06:03:44;;;;;;;10.38;6.85;;;;;;;32.01;18.18;98942.59;5078038;28;20032;-78
2022/04/28 06:06:10;;;;;;;9.20;6.72;;;;;;;32.00;18.21;98953.16;5076272;28;20374;-78
2022/04/28 06:08:38;;;;;;;11.65;7.93;;;;;;;32.10;17.31;98948.31;5077461;28;20032;-78
2022/04/28 06:11:05;;;;;;;9.57;6.63;;;;;;;32.12;17.45;98942.94;5076292;28;20039;-78
2022/04/28 06:13:32;;;;;;;11.20;6.82;;;;;;;32.25;17.64;98948.50;5077235;28;20040;-78
2022/04/28 06:15:58;;;;;;;10.50;6.82;;;;;;;32.08;17.85;98951.63;5084990;28;20066;-78
2022/04/28 06:18:24;;;;;;;10.90;6.45;;;;;;;32.20;17.71;98951.97;5078626;28;20025;-78
2022/04/28 06:20:51;;;;;;;8.70;6.43;;;;;;;32.01;17.29;98945.44;5077001;28;20041;-78
2022/04/28 06:23:17;;;;;;;9.25;5.93;;;;;;;31.96;18.30;98948.84;5075336;28;20037;-78
2022/04/28 06:25:43;;;;;;;14.93;7.00;;;;;;;32.12;18.04;98950.66;5080647;28;20056;-78
2022/04/28 06:28:13;;;;;;;10.35;6.25;;;;;;;32.31;17.83;98952.31;5075454;28;20060;-79
2022/04/28 06:30:40;;;;;;;8.15;5.72;;;;;;;32.29;17.69;98947.09;5075129;28;20030;-79
2022/04/28 06:33:08;;;;;;;9.13;5.72;;;;;;;32.33;17.45;98949.78;5076992;28;20064;-79
2022/04/28 06:35:34;;;;;;;9.18;5.72;;;;;;;32.49;17.83;98946.66;5076210;28;20049;-79
2022/04/28 06:38:01;;;;;;;6.88;4.82;;;;;;;32.66;17.60;98945.94;5074378;28;20486;-79
2022/04/28 06:40:28;;;;;;;8.05;5.45;;;;;;;32.58;17.42;98943.88;5074629;28;20039;-78
2022/04/28 06:42:54;;;;;;;8.15;5.70;;;;;;;32.64;16.94;98950.50;5076140;28;20039;-79
2022/04/28 06:45:21;;;;;;;7.35;4.55;;;;;;;32.52;16.72;98949.38;5077024;28;20461;-79
2022/04/28 06:47:47;;;;;;;6.47;4.05;;;;;;;32.61;16.80;98948.59;5077825;28;20029;-79
2022/04/28 06:50:13;;;;;;;6.70;4.32;;;;;;;32.70;17.33;98945.75;5078532;28;20035;-79
2022/04/28 06:52:39;;;;;;;5.20;4.10;;;;;;;32.87;16.17;98949.88;5077831;28;20500;-79
2022/04/28 06:55:08;;;;;;;5.57;4.05;;;;;;;33.00;16.89;98955.44;5077470;28;20035;-79
2022/04/28 06:57:36;;;;;;;11.77;4.75;;;;;;;32.64;15.55;98942.78;5076891;28;20078;-79
2022/04/28 07:00:04;;;;;;;6.65;4.30;;;;;;;32.09;16.20;98950.34;5075083;28;20032;-78
2022/04/28 07:02:31;;;;;;;6.30;3.72;;;;;;;31.19;16.99;98964.00;5077566;28;20047;-78
2022/04/28 07:04:58;;;;;;;5.97;3.70;;;;;;;30.72;17.30;98961.22;5078869;28;20024;-79
2022/04/28 07:07:25;;;;;;;5.75;3.72;;;;;;;29.53;18.32;98949.69;5076094;28;20406;-78
2022/04/28 07:09:52;;;;;;;6.05;3.78;;;;;;;29.45;18.58;98951.19;5072867;28;20047;-79
2022/04/28 07:12:18;;;;;;;5.97;4.05;;;;;;;29.01;18.86;98958.47;5074088;28;20036;-78
2022/04/28 07:14:44;;;;;;;5.07;3.47;;;;;;;29.10;18.27;98961.44;5076007;28;20028;-79
2022/04/28 07:17:11;;;;;;;4.57;3.47;;;;;;;30.21;17.54;98963.34;5076499;28;20097;-79
2022/04/28 07:19:37;;;;;;;5.50;2.95;;;;;;;31.08;16.64;98970.06;5077300;28;20082;-78
2022/04/28 07:22:05;;;;;;;5.57;2.95;;;;;;;31.84;16.48;98956.22;5071944;28;20063;-78
2022/04/28 07:24:37;;;;;;;3.85;2.60;;;;;;;30.84;17.34;98963.22;5079088;28;20401;-78
2022/04/28 07:27:04;;;;;;;6.88;4.38;;;;;;;28.51;18.28;98963.88;5077019;28;20040;-78
2022/04/28 07:29:30;;;;;;;5.05;3.33;;;;;;;26.98;20.21;98967.75;5075549;28;20040;-79
2022/04/28 07:31:58;;;;;;;4.63;3.00;;;;;;;28.95;18.66;98953.81;5073503;28;20042;-78
2022/04/28 07:34:25;;;;;;;5.35;3.35;;;;;;;28.71;18.51;98971.00;5077871;28;20039;-78
2022/04/28 07:36:52;;;;;;;4.60;3.22;;;;;;;28.63;18.60;98958.31;5076365;28;20040;-79
2022/04/28 07:39:18;;;;;;;5.72;3.72;;;;;;;27.11;20.82;98974.31;5081985;28;20032;-78
2022/04/28 07:41:46;;;;;;;7.78;3.97;;;;;;;26.57;21.12;98980.13;5078430;28;20039;-78
2022/04/28 07:44:13;;;;;;;6.75;5.03;;;;;;;25.97;20.92;98981.13;5077088;28;20410;-78
2022/04/28 07:46:39;;;;;;;6.75;4.07;;;;;;;26.86;19.75;98985.28;5080840;28;20055;-78
2022/04/28 07:49:06;;;;;;;6.18;3.67;;;;;;;26.68;20.60;98985.56;5080598;28;20043;-78
2022/04/28 07:51:32;;;;;;;5.85;3.55;;;;;;;28.47;18.29;98980.13;5077282;28;20032;-78
2022/04/28 07:54:02;;;;;;;5.35;4.07;;;;;;;28.99;18.36;98974.28;5081177;28;20028;-78
2022/04/28 07:56:29;;;;;;;7.15;4.55;;;;;;;27.90;19.07;98983.50;5075386;28;20043;-78
2022/04/28 07:58:55;;;;;;;8.13;5.20;;;;;;;26.99;19.27;98991.88;5078385;28;20021;-78
2022/04/28 08:01:21;;;;;;;5.38;3.92;;;;;;;27.51;18.96;98975.91;5080124;28;20038;-78
2022/04/28 08:03:49;;;;;;;4.40;3.40;;;;;;;27.58;20.41;98974.97;5081765;28;20032;-78
2022/04/28 08:06:15;;;;;;;4.68;4.18;;;;;;;28.33;18.11;98975.63;5079873;28;20044;-78
2022/04/28 08:08:43;;;;;;;3.85;3.13;;;;;;;27.31;18.97;98983.56;5080082;28;20040;-78
2022/04/28 08:11:09;;;;;;;5.28;3.47;;;;;;;28.54;19.04;98975.06;5076332;28;20537;-78
2022/04/28 08:13:36;;;;;;;3.95;2.80;;;;;;;29.97;17.84;98985.56;5078336;28;20039;-78
2022/04/28 08:16:02;;;;;;;3.15;2.20;;;;;;;29.30;18.01;98981.13;5075228;28;20025;-79
2022/04/28 08:18:30;;;;;;;4.90;2.53;;;;;;;26.16;19.37;98988.09;5077994;28;20040;-78
2022/04/28 08:20:56;;;;;;;2.60;2.33;;;;;;;26.40;19.45;98986.88;5075359;28;20025;-78
2022/04/28 08:23:22;;;;;;;2.83;2.30;;;;;;;25.09;21.06;98992.69;5081577;28;20075;-78
2022/04/28 08:25:49;;;;;;;4.32;3.00;;;;;;;24.48;21.16;98983.31;5076577;28;20029;-78
2022/04/28 08:28:15;;;;;;;3.38;2.47;;;;;;;25.04;21.31;98987.56;5077849;28;20493;-79
2022/04/28 08:30:42;;;;;;;5.45;2.88;;;;;;;25.98;19.63;98984.69;5081670;28;20031;-78
2022/04/28 08:33:08;;;;;;;6.78;3.60;;;;;;;25.06;21.09;98983.13;5079133;28;20037;-78
2022/04/28 08:35:35;;;;;;;4.78;3.22;;;;;;;26.34;19.70;98977.31;5076579;28;20036;-79
2022/04/28 08:38:01;;;;;;;3.42;2.42;;;;;;;26.24;18.88;98986.72;5077177;28;20036;-78
2022/04/28 08:40:28;;;;;;;3.60;2.67;;;;;;;26.14;20.15;98989.75;5078423;28;20546;-78
2022/04/28 08:42:56;;;;;;;8.93;3.00;;;;;;;26.58;19.17;98980.94;5080702;28;20039;-79
2022/04/28 08:45:28;;;;;;;4.07;2.80;;;;;;;27.97;18.28;98980.50;5081762;28;20043;-78
2022/04/28 08:47:58;;;;;;;3.33;2.58;;;;;;;28.90;17.74;98974.16;5080902;28;20416;-79
2022/04/28 08:50:25;;;;;;;2.63;2.00;;;;;;;30.74;15.12;98973.69;5077112;28;20393;-79
2022/04/28 08:52:54;;;;;;;2.92;2.20;;;;;;;31.69;15.32;98966.56;5077131;28;20032;-79
2022/04/28 08:55:21;;;;;;;2.85;1.85;;;;;;;30.79;15.91;98975.13;5082489;28;20031;-79
2022/04/28 08:57:48;;;;;;;2.15;1.13;;;;;;;31.82;15.26;98966.47;5080164;28;20048;-79
2022/04/28 09:00:15;;;;;;;2.45;2.17;;;;;;;29.47;16.68;98976.97;5078541;28;20037;-79
2022/04/28 09:02:41;;;;;;;1.20;1.10;;;;;;;27.84;17.25;98974.75;5075970;28;20049;-78
2022/04/28 09:05:10;;;;;;;1.85;1.52;;;;;;;28.19;17.11;98980.84;5081422;28;20028;-79
2022/04/28 09:07:39;;;;;;;1.70;1.38;;;;;;;29.05;16.99;98970.50;5077860;28;20054;-78
2022/04/28 09:10:30;;;;;;;2.53;1.63;;;;;;;27.96;16.03;98970.44;5077012;28;20056;-78
2022/04/28 09:15:54;;;;;;;1.77;1.42;;;;;;;26.90;18.83;98974.72;5079926;28;20156;-79
2022/04/28 09:18:21;;;;;;;1.53;1.20;;;;;;;29.12;16.68;98972.31;5076642;28;20569;-79
2022/04/28 09:20:48;;;;;;;1.60;1.30;;;;;;;28.86;16.20;98967.81;5078109;28;20297;-79
2022/04/28 09:23:18;;;;;;;1.85;1.50;;;;;;;29.49;15.90;98965.19;5083313;28;20063;-79
2022/04/28 09:25:45;;;;;;;2.03;1.17;;;;;;;30.71;15.50;98968.16;5073805;28;20032;-79
2022/04/28 09:28:12;;;;;;;1.60;1.50;;;;;;;29.76;16.29;98962.78;5085293;28;20067;-79
2022/04/28 09:30:49;;;;;;;1.30;1.20;;;;;;;29.25;15.15;98956.22;5073584;28;20125;-79
2022/04/28 09:33:20;;;;;;;1.70;1.30;;;;;;;28.73;16.80;98957.22;5081569;28;20028;-79
2022/04/28 09:35:54;;;;;;;1.85;1.75;;;;;;;27.83;16.91;98961.09;5079416;28;20605;-79
2022/04/28 09:38:21;;;;;;;2.17;1.73;;;;;;;27.77;17.96;98963.63;5080867;28;20069;-79
2022/04/28 09:43:35;;;;;;;2.33;2.08;;;;;;;26.30;19.32;98982.19;5074947;28;20110;-79
2022/04/28 09:46:04;;;;;;;2.90;2.40;;;;;;;25.88;18.50;98980.06;5079442;28;20124;-79
2022/04/28 09:48:36;;;;;;;1.80;1.70;;;;;;;26.71;17.31;98977.06;5076514;28;20506;-79
2022/04/28 09:51:12;;;;;;;2.20;1.85;;;;;;;26.38;17.39;98977.25;5074125;28;20401;-79
2022/04/28 09:53:38;;;;;;;2.88;1.63;;;;;;;26.45;18.05;98979.94;5080346;28;20039;-79
2022/04/28 09:56:06;;;;;;;2.85;1.70;;;;;;;27.65;16.59;98969.16;5077971;28;20036;-78
2022/04/28 09:58:33;;;;;;;1.75;1.42;;;;;;;26.56;17.94;98977.72;5074173;28;20036;-79
2022/04/28 10:01:03;;;;;;;1.77;1.42;;;;;;;26.22;17.82;98982.75;5077019;28;20402;-79
2022/04/28 10:03:33;;;;;;;1.30;1.20;;;;;;;27.36;17.78;98971.78;5074436;28;20139;-79
2022/04/28 10:06:02;;;;;;;2.30;1.40;;;;;;;27.85;16.39;98973.53;5082205;28;20040;-79
2022/04/28 10:08:35;;;;;;;1.70;1.20;;;;;;;28.66;16.03;98974.38;5076659;28;20036;-79
2022/04/28 10:11:06;;;;;;;1.30;1.10;;;;;;;27.80;16.34;98970.41;5062766;28;20562;-79
2022/04/28 10:13:32;;;;;;;2.00;1.10;;;;;;;28.07;14.97;98968.22;5078480;28;20106;-79
2022/04/28 10:16:02;;;;;;;1.52;1.30;;;;;;;27.91;15.61;98965.34;5073945;28;20025;-79
2022/04/28 10:18:41;;;;;;;1.10;1.00;;;;;;;29.17;14.79;98960.47;5079237;28;20020;-79
2022/04/28 10:21:12;;;;;;;1.50;1.10;;;;;;;29.53;15.16;98954.56;5077805;28;20123;-79
2022/04/28 10:32:24;;;;;;;1.85;1.23;;;;;;;26.66;14.80;98969.09;5041994;28;20111;-79
2022/04/28 10:35:03;;;;;;;1.63;1.10;;;;;;;27.21;12.89;98956.38;5037479;28;20057;-78
2022/04/28 10:37:40;;;;;;;2.05;1.08;;;;;;;28.47;13.78;98952.63;5048393;28;20116;-79
2022/04/28 10:40:11;;;;;;;1.15;1.02;;;;;;;26.97;14.13;98964.13;5036030;28;20050;-78
2022/04/28 10:42:47;;;;;;;1.48;1.05;;;;;;;27.80;14.15;98959.94;5038709;28;20025;-78
2022/04/28 10:45:28;;;;;;;1.17;0.85;;;;;;;27.19;14.27;98956.81;5040155;28;20045;-79
2022/04/28 10:48:25;;;;;;;1.92;1.13;;;;;;;27.42;14.46;98960.81;5032893;28;20038;-79
2022/04/28 10:51:18;;;;;;;2.50;1.20;;;;;;;28.79;12.85;98954.66;5043475;28;20115;-79
2022/04/28 10:54:01;;;;;;;1.77;1.08;;;;;;;27.77;12.82;98957.19;5036292;28;20029;-78
2022/04/28 10:56:43;;;;;;;1.00;0.90;;;;;;;29.35;13.92;98952.28;5040448;28;20519;-79
2022/04/28 10:59:32;;;;;;;1.70;1.40;;;;;;;28.42;14.05;98958.06;5038995;28;20038;-79
2022/04/28 11:02:19;;;;;;;1.02;0.93;;;;;;;28.38;14.46;98948.88;5039941;28;20079;-79
2022/04/28 11:05:03;;;;;;;1.40;0.90;;;;;;;27.41;15.01;98962.84;5038450;28;20037;-78
2022/04/28 11:07:31;;;;;;;1.83;1.40;;;;;;;27.53;16.40;98962.16;5034177;28;20812;-78
2022/04/28 11:09:58;;;;;;;2.17;1.40;;;;;;;25.73;17.24;98965.38;5040656;28;20112;-77
2022/04/28 11:12:32;;;;;;;1.80;1.20;;;;;;;25.83;18.13;98970.06;5040003;28;20045;-78
2022/04/28 11:15:03;;;;;;;1.20;1.10;;;;;;;26.50;17.67;98968.19;5044772;28;20025;-77
2022/04/28 11:17:31;;;;;;;1.95;1.42;;;;;;;25.40;17.77;98967.03;5047808;28;20459;-77
2022/04/28 11:20:03;;;;;;;3.92;1.35;;;;;;;26.05;17.71;98971.31;5039870;28;20507;-77
2022/04/28 11:22:30;;;;;;;0.80;0.80;;;;;;;27.48;16.15;98962.69;5041419;28;20083;-77
2022/04/28 11:24:57;;;;;;;1.00;0.90;;;;;;;27.47;15.36;98969.53;5044522;28;20045;-77
2022/04/28 11:27:27;;;;;;;1.20;1.10;;;;;;;27.72;14.72;98975.44;5035932;28;20045;-77
2022/04/28 11:29:58;;;;;;;1.10;0.80;;;;;;;28.66;13.78;98965.91;5032525;28;20061;-77
2022/04/28 11:32:25;;;;;;;1.45;0.90;;;;;;;29.33;13.45;98960.44;5030627;28;20038;-77
2022/04/28 11:34:52;;;;;;;0.80;0.80;;;;;;;30.99;12.97;98949.34;5031906;28;20128;-77
2022/04/28 11:37:24;;;;;;;1.23;1.10;;;;;;;31.40;12.75;98951.84;5036971;28;20489;-77
2022/04/28 11:39:54;;;;;;;2.03;0.70;;;;;;;31.80;13.97;98935.69;5023280;28;20032;-77
2022/04/28 11:42:22;;;;;;;;;;;;;;;32.78;10.70;98954.78;5021644;28;20033;-77
2022/04/28 11:44:51;;;;;;;2.63;0.73;;;;;;;31.62;13.04;98949.81;5024942;28;19917;-77
2022/04/28 11:47:18;;;;;;;1.50;1.23;;;;;;;28.38;15.04;98954.53;5021306;28;20041;-77
2022/04/28 11:49:50;;;;;;;2.08;1.35;;;;;;;26.97;16.04;98963.31;5019620;28;20033;-77
2022/04/28 11:52:26;;;;;;;5.13;1.60;;;;;;;26.66;16.24;98971.13;5025484;28;20033;-77
2022/04/28 11:54:59;;;;;;;1.23;1.00;;;;;;;26.92;15.94;98969.44;5025324;28;20410;-77
2022/04/28 11:57:27;;;;;;;4.50;1.10;;;;;;;25.91;16.46;98962.28;5028106;28;20505;-77
2022/04/28 11:59:54;;;;;;;1.50;1.15;;;;;;;25.75;16.74;98962.94;5030442;28;20044;-77
2022/04/28 12:02:32;;;;;;;1.83;1.10;;;;;;;26.29;16.02;98966.53;5024542;28;20036;-77
2022/04/28 12:05:03;;;;;;;2.85;1.33;;;;;;;26.44;16.59;98956.63;5021749;28;20033;-77